Time;durP1;ratioP1;P1;durP2;ratioP2;P2;SDS_P1;SDS_P2;PMS_P1;PMS_P2;Temp;Humidity;BMP_temperature;BMP_pressure;BME280_temperature;BME280_humidity;BME280_pressure;Samples;Min_cycle;Max_cycle;Signal;HPM_P1;HPM_P2
2021/05/31 00:01:49;;;;;;;1.00;0.85;;;10.70;66.30;;;;;;5053534;28;20079;-75
2021/05/31 00:04:15;;;;;;;0.30;0.30;;;10.70;66.20;;;;;;5053532;28;20036;-75
2021/05/31 00:07:02;;;;;;;0.25;0.25;;;10.60;66.60;;;;;;5071487;28;20031;-74
2021/05/31 00:09:28;;;;;;;0.20;0.20;;;10.70;66.40;;;;;;5071476;28;20029;-76
2021/05/31 00:11:54;;;;;;;0.22;0.22;;;10.70;66.10;;;;;;5053422;28;20039;-75
2021/05/31 00:14:19;;;;;;;0.20;0.20;;;10.80;65.80;;;;;;5071617;28;20025;-75
2021/05/31 00:16:45;;;;;;;0.22;0.22;;;10.90;65.50;;;;;;5071293;28;20470;-75
2021/05/31 00:19:12;;;;;;;0.20;0.20;;;11.00;65.10;;;;;;5071460;28;20094;-75
2021/05/31 00:21:39;;;;;;;0.28;0.28;;;10.90;65.30;;;;;;5071257;28;20116;-75
2021/05/31 00:24:05;;;;;;;0.20;0.20;;;10.90;66.10;;;;;;5053515;28;20021;-75
2021/05/31 00:26:30;;;;;;;0.20;0.20;;;10.70;66.30;;;;;;5071202;28;20473;-75
2021/05/31 00:28:56;;;;;;;0.25;0.25;;;10.70;66.90;;;;;;5036861;28;20047;-75
2021/05/31 00:31:22;;;;;;;0.65;0.65;;;10.70;66.70;;;;;;5036678;28;20032;-75
2021/05/31 00:33:48;;;;;;;0.20;0.20;;;10.70;66.40;;;;;;5057038;28;20373;-75
2021/05/31 00:36:14;;;;;;;0.20;0.20;;;10.70;67.00;;;;;;5075059;28;20025;-75
2021/05/31 00:38:41;;;;;;;0.40;0.40;;;10.80;66.30;;;;;;5075427;28;20070;-75
2021/05/31 00:41:07;;;;;;;0.20;0.20;;;10.50;66.80;;;;;;5075208;28;20473;-75
2021/05/31 00:43:34;;;;;;;0.20;0.20;;;10.30;67.90;;;;;;5075443;28;20484;-75
2021/05/31 00:46:01;;;;;;;0.20;0.20;;;10.30;68.20;;;;;;5057363;28;20047;-75
2021/05/31 00:48:28;;;;;;;0.20;0.20;;;10.30;69.00;;;;;;5057439;28;20105;-75
2021/05/31 00:50:56;;;;;;;0.30;0.30;;;10.40;67.90;;;;;;5075074;28;20044;-75
2021/05/31 00:53:22;;;;;;;0.30;0.30;;;10.60;67.50;;;;;;5075062;28;20099;-75
2021/05/31 00:55:49;;;;;;;0.20;0.20;;;10.60;66.60;;;;;;5056910;28;20243;-75
2021/05/31 00:58:15;;;;;;;0.30;0.30;;;10.40;68.00;;;;;;5075209;28;20024;-75
2021/05/31 01:00:42;;;;;;;0.20;0.20;;;10.20;68.60;;;;;;5056738;28;20048;-75
2021/05/31 01:03:08;;;;;;;0.38;0.38;;;9.80;69.40;;;;;;5056920;28;20115;-75
2021/05/31 01:05:34;;;;;;;0.20;0.20;;;9.50;70.80;;;;;;5040724;28;20097;-76
2021/05/31 01:08:07;;;;;;;0.28;0.28;;;9.30;71.80;;;;;;5057031;28;20117;-75
2021/05/31 01:10:48;;;;;;;0.20;0.20;;;9.40;72.00;;;;;;5040318;28;20067;-75
2021/05/31 01:13:43;;;;;;;0.30;0.30;;;9.80;70.70;;;;;;5057394;28;20126;-75
2021/05/31 01:16:28;;;;;;;0.40;0.40;;;10.00;68.90;;;;;;5057030;28;20025;-75
2021/05/31 01:18:58;;;;;;;0.20;0.20;;;10.20;68.50;;;;;;5074912;28;20025;-76
2021/05/31 01:21:24;;;;;;;0.20;0.20;;;10.10;68.40;;;;;;5056768;28;20027;-75
2021/05/31 01:24:35;;;;;;;0.20;0.20;;;10.00;68.80;;;;;;5056806;28;20024;-75
2021/05/31 01:27:22;;;;;;;0.30;0.30;;;9.60;69.80;;;;;;5074585;28;20052;-75
2021/05/31 01:29:56;;;;;;;0.77;0.77;;;9.50;70.60;;;;;;5039796;28;20028;-75
2021/05/31 01:32:35;;;;;;;0.32;0.32;;;9.40;71.30;;;;;;5056250;28;20036;-75
2021/05/31 01:35:03;;;;;;;0.30;0.30;;;9.30;71.90;;;;;;5074380;28;20035;-75
2021/05/31 01:37:30;;;;;;;0.20;0.20;;;9.20;71.90;;;;;;5056202;28;20112;-75
2021/05/31 01:40:01;;;;;;;0.30;0.30;;;9.20;73.00;;;;;;5056305;28;20020;-76
2021/05/31 01:42:28;;;;;;;0.25;0.25;;;9.20;72.80;;;;;;5074053;28;20415;-74
2021/05/31 01:44:54;;;;;;;0.30;0.30;;;9.40;72.30;;;;;;5073968;28;20036;-74
2021/05/31 01:47:20;;;;;;;0.20;0.20;;;9.50;71.90;;;;;;5073951;28;20021;-75
2021/05/31 01:49:47;;;;;;;0.20;0.20;;;9.60;71.80;;;;;;5056063;28;20029;-75
2021/05/31 01:52:14;;;;;;;0.20;0.20;;;9.70;71.30;;;;;;5056440;28;20028;-75
2021/05/31 01:54:41;;;;;;;0.30;0.30;;;9.60;70.60;;;;;;5056139;28;20032;-75
2021/05/31 01:57:08;;;;;;;0.30;0.30;;;9.50;71.20;;;;;;5055949;28;20016;-75
2021/05/31 01:59:35;;;;;;;0.20;0.20;;;9.40;71.30;;;;;;5073917;28;20095;-75
2021/05/31 02:02:01;;;;;;;0.20;0.20;;;9.20;72.30;;;;;;5073901;28;20032;-75
2021/05/31 02:04:27;;;;;;;0.30;0.30;;;8.90;72.90;;;;;;5073637;28;20035;-76
2021/05/31 02:06:53;;;;;;;0.30;0.30;;;8.80;74.40;;;;;;5055752;28;20336;-75
2021/05/31 02:09:20;;;;;;;0.50;0.50;;;8.50;74.90;;;;;;5073419;28;20430;-75
2021/05/31 02:12:07;;;;;;;0.20;0.20;;;8.30;75.30;;;;;;5055527;28;20035;-74
2021/05/31 02:14:58;;;;;;;0.28;0.28;;;7.90;76.90;;;;;;5055663;28;20036;-75
2021/05/31 02:17:42;;;;;;;0.50;0.50;;;8.10;76.60;;;;;;5055515;28;20025;-74
2021/05/31 02:20:11;;;;;;;0.30;0.30;;;8.40;76.00;;;;;;5073490;28;20029;-75
2021/05/31 02:22:42;;;;;;;0.40;0.40;;;8.60;75.20;;;;;;5039033;28;20020;-74
2021/05/31 02:25:10;;;;;;;0.40;0.40;;;8.90;73.80;;;;;;5055610;28;20024;-74
2021/05/31 02:27:36;;;;;;;0.30;0.30;;;9.20;72.50;;;;;;5073333;28;20052;-75
2021/05/31 02:30:04;;;;;;;0.30;0.30;;;9.00;73.20;;;;;;5055421;28;20036;-75
2021/05/31 02:32:30;;;;;;;0.30;0.30;;;9.20;72.70;;;;;;5055261;28;20492;-74
2021/05/31 02:34:57;;;;;;;0.52;0.52;;;9.10;72.50;;;;;;5073031;28;20028;-75
2021/05/31 02:37:39;;;;;;;0.30;0.30;;;9.10;72.80;;;;;;5072833;28;20028;-75
2021/05/31 02:40:06;;;;;;;0.52;0.52;;;9.00;72.50;;;;;;5073029;28;20027;-75
2021/05/31 02:42:40;;;;;;;0.28;0.28;;;8.90;73.60;;;;;;5072915;28;20020;-75
2021/05/31 02:45:07;;;;;;;0.57;0.52;;;8.50;74.10;;;;;;5072825;28;20103;-75
2021/05/31 02:47:33;;;;;;;0.30;0.30;;;8.10;75.00;;;;;;5072604;28;20545;-75
2021/05/31 02:49:58;;;;;;;0.30;0.30;;;8.00;76.30;;;;;;5072707;28;20033;-74
2021/05/31 02:52:24;;;;;;;0.20;0.20;;;8.20;75.40;;;;;;5055051;28;20031;-75
2021/05/31 02:54:50;;;;;;;0.30;0.30;;;8.30;75.30;;;;;;5054166;28;20419;-75
2021/05/31 02:57:17;;;;;;;0.30;0.30;;;8.50;74.50;;;;;;5054670;28;20031;-75
2021/05/31 02:59:42;;;;;;;0.22;0.22;;;8.80;73.40;;;;;;5054571;28;20024;-75
2021/05/31 03:02:08;;;;;;;0.20;0.20;;;8.90;72.10;;;;;;5072631;28;20550;-76
2021/05/31 03:04:34;;;;;;;0.38;0.38;;;8.80;73.60;;;;;;5038037;28;20036;-75
2021/05/31 03:07:00;;;;;;;0.30;0.30;;;8.60;73.30;;;;;;5072313;28;20021;-75
2021/05/31 03:09:25;;;;;;;0.30;0.30;;;8.40;74.60;;;;;;5054363;28;20522;-74
2021/05/31 03:11:51;;;;;;;0.20;0.20;;;8.20;75.90;;;;;;5072430;28;20028;-75
2021/05/31 03:14:17;;;;;;;0.30;0.30;;;8.10;75.60;;;;;;5054526;28;20434;-74
2021/05/31 03:16:43;;;;;;;0.30;0.30;;;7.90;76.50;;;;;;5072196;28;20115;-75
2021/05/31 03:19:08;;;;;;;0.32;0.32;;;7.80;76.80;;;;;;5054375;28;20024;-75
2021/05/31 03:21:34;;;;;;;0.30;0.30;;;7.80;76.80;;;;;;5072333;28;20100;-75
2021/05/31 03:24:00;;;;;;;0.30;0.30;;;8.00;76.20;;;;;;5072366;28;20546;-75
2021/05/31 03:26:26;;;;;;;0.30;0.30;;;8.20;75.80;;;;;;5037454;28;20039;-75
2021/05/31 03:28:52;;;;;;;0.30;0.30;;;8.30;75.40;;;;;;5072247;28;20074;-75
2021/05/31 03:31:17;;;;;;;0.20;0.20;;;8.40;75.00;;;;;;5072299;28;20407;-75
2021/05/31 03:33:43;;;;;;;0.50;0.50;;;8.50;74.10;;;;;;5072184;28;20099;-74
2021/05/31 03:36:09;;;;;;;0.20;0.20;;;8.40;74.80;;;;;;5037599;28;20029;-75
2021/05/31 03:38:34;;;;;;;0.30;0.30;;;8.50;74.20;;;;;;5071967;28;20028;-71
2021/05/31 03:41:00;;;;;;;0.30;0.30;;;8.10;74.60;;;;;;5071620;28;20055;-71
2021/05/31 03:43:26;;;;;;;0.63;0.63;;;7.80;75.80;;;;;;5071731;28;20020;-71
2021/05/31 03:45:52;;;;;;;0.75;0.57;;;7.70;76.40;;;;;;5071577;28;20100;-71
2021/05/31 03:48:18;;;;;;;0.40;0.40;;;7.70;77.20;;;;;;5071688;28;20048;-71
2021/05/31 03:50:44;;;;;;;0.30;0.30;;;7.70;78.20;;;;;;5053805;28;20501;-71
2021/05/31 03:53:10;;;;;;;1.85;0.73;;;7.80;78.00;;;;;;5053522;28;20098;-71
2021/05/31 03:55:36;;;;;;;0.20;0.20;;;8.00;76.90;;;;;;5071458;28;20017;-71
2021/05/31 03:58:02;;;;;;;0.30;0.30;;;8.10;76.60;;;;;;5071894;28;20020;-71
2021/05/31 04:00:28;;;;;;;0.35;0.35;;;8.30;76.00;;;;;;5053303;28;20105;-71
2021/05/31 04:02:54;;;;;;;0.30;0.30;;;8.40;74.60;;;;;;5071631;28;20472;-71
2021/05/31 04:05:21;;;;;;;0.30;0.30;;;8.30;74.60;;;;;;5071399;28;20032;-71
2021/05/31 04:13:18;;;;;;;0.30;0.30;;;8.60;73.30;;;;;;5075500;28;20112;-71
2021/05/31 04:15:44;;;;;;;0.22;0.22;;;8.60;73.40;;;;;;5057230;28;20028;-71
2021/05/31 04:18:10;;;;;;;0.30;0.30;;;8.60;73.50;;;;;;5057390;28;20051;-71
2021/05/31 04:20:36;;;;;;;0.30;0.30;;;8.70;73.70;;;;;;5057329;28;20082;-70
2021/05/31 04:23:02;;;;;;;0.20;0.20;;;8.80;73.20;;;;;;5057215;28;20538;-70
2021/05/31 04:25:28;;;;;;;0.30;0.30;;;9.10;72.80;;;;;;5057098;28;20025;-70
2021/05/31 04:27:54;;;;;;;0.20;0.20;;;9.20;71.90;;;;;;5075028;28;20544;-72
2021/05/31 04:30:20;;;;;;;0.30;0.30;;;9.20;71.50;;;;;;5075026;28;20035;-71
2021/05/31 04:32:47;;;;;;;3.63;3.30;;;9.10;72.60;;;;;;5075023;28;20036;-71
2021/05/31 04:35:12;;;;;;;0.55;0.50;;;9.20;72.00;;;;;;5074979;28;20404;-71
2021/05/31 04:37:38;;;;;;;0.50;0.50;;;9.20;71.90;;;;;;5074768;28;20029;-71
2021/05/31 04:40:05;;;;;;;0.30;0.30;;;9.20;72.40;;;;;;5074873;28;20031;-71
2021/05/31 04:42:31;;;;;;;0.38;0.38;;;9.30;72.70;;;;;;5074687;28;20059;-71
2021/05/31 04:44:56;;;;;;;0.30;0.30;;;9.30;71.80;;;;;;5074843;28;20361;-71
2021/05/31 04:47:22;;;;;;;0.20;0.20;;;9.30;71.90;;;;;;5074548;28;20141;-71
2021/05/31 04:49:48;;;;;;;0.40;0.40;;;9.30;71.60;;;;;;5056761;28;20440;-71
2021/05/31 04:52:14;;;;;;;0.52;0.52;;;9.40;72.00;;;;;;5074594;28;20025;-71
2021/05/31 04:54:41;;;;;;;0.30;0.30;;;9.40;71.80;;;;;;5074667;28;20021;-71
2021/05/31 04:57:07;;;;;;;0.20;0.20;;;9.40;72.80;;;;;;5039766;28;20046;-71
2021/05/31 04:59:32;;;;;;;0.20;0.20;;;9.40;72.10;;;;;;5074550;28;20021;-70
2021/05/31 05:01:58;;;;;;;0.20;0.20;;;9.40;71.70;;;;;;5074352;28;20408;-71
2021/05/31 05:04:24;;;;;;;0.20;0.20;;;9.60;71.40;;;;;;5074368;28;20032;-71
2021/05/31 05:06:50;;;;;;;0.60;0.60;;;9.80;71.60;;;;;;5074193;28;20126;-71
2021/05/31 05:09:15;;;;;;;4.60;1.38;;;9.80;71.20;;;;;;5056119;28;20162;-71
2021/05/31 05:11:41;;;;;;;0.30;0.30;;;9.70;71.00;;;;;;5074244;28;20035;-71
2021/05/31 05:14:07;;;;;;;0.28;0.28;;;9.80;71.50;;;;;;5074382;28;20074;-71
2021/05/31 05:16:32;;;;;;;0.35;0.35;;;10.00;71.80;;;;;;5074211;28;20053;-72
2021/05/31 05:18:58;;;;;;;0.20;0.20;;;10.10;71.50;;;;;;5073626;28;20056;-71
2021/05/31 05:21:24;;;;;;;0.20;0.20;;;10.40;71.10;;;;;;5073953;28;20394;-71
2021/05/31 05:23:50;;;;;;;0.20;0.20;;;10.50;70.40;;;;;;5074138;28;20032;-71
2021/05/31 05:26:18;;;;;;;0.20;0.20;;;10.70;69.70;;;;;;5073760;28;20020;-71
2021/05/31 05:28:44;;;;;;;0.20;0.20;;;10.90;69.20;;;;;;5074044;28;20025;-71
2021/05/31 05:31:11;;;;;;;0.20;0.20;;;11.10;66.90;;;;;;5056038;28;20472;-71
2021/05/31 05:33:42;;;;;;;0.20;0.20;;;11.20;67.40;;;;;;5055890;28;20043;-71
2021/05/31 05:36:32;;;;;;;0.20;0.20;;;11.30;66.50;;;;;;5039346;28;20103;-71
2021/05/31 05:41:52;;;;;;;0.30;0.30;;;11.10;64.80;;;;;;5055614;28;20029;-71
2021/05/31 05:49:33;;;;;;;0.70;0.35;;;11.30;65.20;;;;;;5025796;28;20052;-72
2021/05/31 05:51:59;;;;;;;0.20;0.20;;;11.50;64.90;;;;;;5073549;28;20020;-71
2021/05/31 05:54:24;;;;;;;0.60;0.60;;;11.50;65.40;;;;;;5055710;28;20078;-72
2021/05/31 05:56:50;;;;;;;0.43;0.43;;;11.80;64.60;;;;;;5073257;28;20028;-71
2021/05/31 05:59:16;;;;;;;0.30;0.30;;;11.90;65.20;;;;;;5073486;28;20104;-71
2021/05/31 06:01:44;;;;;;;0.30;0.30;;;12.00;63.90;;;;;;5055221;28;20036;-72
2021/05/31 06:04:10;;;;;;;1.00;0.60;;;12.10;62.30;;;;;;5073193;28;20030;-71
2021/05/31 06:06:35;;;;;;;0.22;0.22;;;12.10;61.40;;;;;;5071597;28;20070;-72
2021/05/31 06:09:02;;;;;;;0.68;0.68;;;12.20;62.40;;;;;;5073074;28;20020;-71
2021/05/31 06:11:28;;;;;;;1.20;0.65;;;12.30;62.90;;;;;;5073144;28;20669;-72
2021/05/31 06:13:54;;;;;;;0.47;0.43;;;12.40;62.20;;;;;;5073110;28;20017;-72
2021/05/31 06:16:20;;;;;;;0.20;0.20;;;12.50;63.00;;;;;;5088568;28;20158;-71
2021/05/31 06:18:45;;;;;;;1.42;1.13;;;12.50;64.10;;;;;;5073026;28;20138;-71
2021/05/31 06:21:11;;;;;;;0.55;0.55;;;12.60;64.80;;;;;;5072844;28;20111;-72
2021/05/31 06:23:37;;;;;;;0.20;0.20;;;12.70;64.30;;;;;;5073009;28;20199;-71
2021/05/31 06:26:03;;;;;;;0.10;0.10;;;12.60;64.00;;;;;;5088207;28;20017;-71
2021/05/31 06:28:29;;;;;;;0.47;0.47;;;12.80;64.60;;;;;;5072526;28;20025;-71
2021/05/31 06:30:54;;;;;;;5.93;2.60;;;12.90;65.20;;;;;;5071391;28;20056;-70
2021/05/31 06:33:20;;;;;;;0.65;0.57;;;12.80;65.00;;;;;;5072459;28;20101;-71
2021/05/31 06:35:48;;;;;;;3.50;1.10;;;13.00;63.50;;;;;;5071204;28;20055;-72
2021/05/31 06:38:14;;;;;;;0.73;0.73;;;13.10;62.00;;;;;;5072581;28;20029;-71
2021/05/31 06:40:40;;;;;;;0.32;0.32;;;13.20;61.90;;;;;;5071997;28;20074;-72
2021/05/31 06:43:09;;;;;;;0.52;0.52;;;13.20;62.90;;;;;;5071148;28;20449;-71
2021/05/31 06:45:35;;;;;;;3.85;0.98;;;13.30;61.50;;;;;;5052718;28;20510;-71
2021/05/31 06:48:03;;;;;;;0.50;0.50;;;13.30;61.70;;;;;;5070852;28;20021;-71
2021/05/31 06:50:32;;;;;;;0.20;0.20;;;13.20;62.40;;;;;;5072123;28;20104;-71
2021/05/31 06:52:59;;;;;;;0.47;0.47;;;13.10;61.50;;;;;;5072353;28;20036;-72
2021/05/31 06:55:26;;;;;;;0.63;0.63;;;13.20;62.30;;;;;;5054207;28;20431;-71
2021/05/31 06:57:52;;;;;;;1.98;1.00;;;13.40;62.30;;;;;;5072113;28;20028;-71
2021/05/31 07:00:23;;;;;;;1.38;1.30;;;13.40;61.50;;;;;;5071712;28;20082;-71
2021/05/31 07:02:49;;;;;;;0.60;0.60;;;13.50;60.90;;;;;;5070565;28;20660;-72
2021/05/31 07:05:15;;;;;;;0.40;0.40;;;13.50;61.20;;;;;;5071284;28;20043;-71
2021/05/31 07:07:41;;;;;;;0.82;0.82;;;13.80;61.50;;;;;;5053902;28;20380;-71
2021/05/31 07:10:10;;;;;;;0.20;0.20;;;13.70;61.10;;;;;;5071163;28;20146;-72
2021/05/31 07:12:36;;;;;;;0.47;0.47;;;13.80;60.30;;;;;;5052870;28;20427;-71
2021/05/31 07:15:04;;;;;;;0.20;0.20;;;14.00;60.20;;;;;;5071108;28;20025;-71
2021/05/31 07:17:35;;;;;;;0.20;0.20;;;14.20;60.20;;;;;;5070802;28;20051;-72
2021/05/31 07:20:03;;;;;;;0.20;0.20;;;14.40;58.70;;;;;;5069690;28;20383;-72
2021/05/31 07:22:29;;;;;;;1.67;1.35;;;14.50;58.90;;;;;;5054522;28;20578;-70
2021/05/31 07:24:55;;;;;;;0.20;0.20;;;14.60;57.80;;;;;;5071190;28;20025;-73
2021/05/31 07:27:21;;;;;;;0.25;0.25;;;14.70;57.70;;;;;;5053045;28;20021;-73
2021/05/31 07:29:47;;;;;;;3.20;0.57;;;14.80;57.40;;;;;;5071172;28;20095;-73
2021/05/31 07:32:13;;;;;;;0.20;0.20;;;15.00;57.00;;;;;;5070907;28;20028;-73
2021/05/31 07:34:39;;;;;;;0.20;0.20;;;14.90;57.30;;;;;;5070941;28;20035;-72
2021/05/31 07:37:06;;;;;;;0.52;0.52;;;15.20;57.40;;;;;;5052698;28;20025;-73
2021/05/31 07:39:32;;;;;;;0.45;0.40;;;15.10;56.30;;;;;;5066374;28;20016;-73
2021/05/31 07:41:58;;;;;;;0.20;0.20;;;15.00;56.60;;;;;;5065052;28;20104;-73
2021/05/31 07:44:23;;;;;;;0.20;0.20;;;14.90;57.70;;;;;;5071043;28;20032;-73
2021/05/31 07:46:49;;;;;;;0.20;0.20;;;15.10;58.30;;;;;;5071673;28;20020;-73
2021/05/31 07:49:15;;;;;;;0.20;0.20;;;15.10;58.10;;;;;;5071021;28;20020;-73
2021/05/31 07:51:44;;;;;;;2.00;1.45;;;15.20;57.60;;;;;;5044636;28;20032;-73
2021/05/31 07:54:10;;;;;;;0.50;0.50;;;15.30;57.60;;;;;;5048600;28;20082;-73
2021/05/31 07:56:36;;;;;;;0.13;0.13;;;15.40;57.80;;;;;;5070437;28;20024;-73
2021/05/31 07:59:03;;;;;;;2.67;1.02;;;15.70;58.40;;;;;;5070914;28;20380;-73
2021/05/31 08:01:29;;;;;;;0.20;0.20;;;15.80;57.00;;;;;;5070376;28;20549;-73
2021/05/31 08:03:54;;;;;;;0.77;0.77;;;16.10;57.30;;;;;;5070524;28;20103;-72
2021/05/31 08:06:20;;;;;;;1.55;0.90;;;16.20;56.50;;;;;;5070529;28;20539;-73
2021/05/31 08:08:46;;;;;;;0.45;0.45;;;16.20;55.90;;;;;;5055970;28;20024;-73
2021/05/31 08:11:12;;;;;;;0.47;0.47;;;16.20;54.70;;;;;;5070771;28;20017;-72
2021/05/31 08:13:38;;;;;;;0.25;0.25;;;16.20;53.60;;;;;;5068576;28;20056;-73
2021/05/31 08:16:06;;;;;;;2.63;1.63;;;16.40;53.70;;;;;;5069110;28;20070;-72
2021/05/31 08:18:32;;;;;;;0.25;0.25;;;16.50;54.40;;;;;;5069661;28;20079;-72
2021/05/31 08:20:58;;;;;;;0.20;0.20;;;16.90;55.10;;;;;;5070276;28;20039;-73
2021/05/31 08:23:24;;;;;;;0.30;0.30;;;16.90;53.80;;;;;;5074458;28;20032;-73
2021/05/31 08:25:50;;;;;;;0.40;0.40;;;17.10;53.30;;;;;;5052409;28;20388;-73
2021/05/31 08:28:16;;;;;;;3.28;0.82;;;17.20;52.00;;;;;;5070316;28;20475;-73
2021/05/31 08:30:43;;;;;;;0.65;0.65;;;17.30;51.90;;;;;;5070339;28;20038;-73
2021/05/31 08:33:10;;;;;;;0.40;0.40;;;17.40;51.70;;;;;;5069854;28;20028;-72
2021/05/31 08:35:38;;;;;;;0.70;0.70;;;17.50;49.80;;;;;;5051744;28;20036;-73
2021/05/31 08:38:04;;;;;;;0.40;0.40;;;17.50;49.50;;;;;;5070077;28;20027;-73
2021/05/31 08:40:30;;;;;;;0.65;0.32;;;17.90;49.30;;;;;;5052171;28;20028;-74
2021/05/31 08:42:56;;;;;;;0.30;0.30;;;17.90;48.80;;;;;;5071932;28;20074;-74
2021/05/31 08:45:24;;;;;;;1.52;0.50;;;18.00;49.90;;;;;;5070389;28;20081;-74
2021/05/31 08:47:52;;;;;;;0.10;0.10;;;18.00;49.90;;;;;;5072950;28;20111;-73
2021/05/31 08:50:29;;;;;;;0.17;0.17;;;18.10;50.20;;;;;;5068878;28;20518;-74
2021/05/31 08:52:55;;;;;;;0.60;0.50;;;18.20;49.50;;;;;;5071494;28;20460;-74
2021/05/31 08:55:24;;;;;;;0.32;0.32;;;18.20;49.00;;;;;;5073599;28;20127;-74
2021/05/31 08:57:50;;;;;;;1.23;1.13;;;18.30;49.20;;;;;;5069046;28;20036;-74
2021/05/31 09:00:20;;;;;;;0.70;0.70;;;18.20;48.70;;;;;;5073329;28;20032;-74
2021/05/31 09:02:46;;;;;;;1.48;0.93;;;18.50;48.90;;;;;;5073477;28;20128;-74
2021/05/31 09:05:12;;;;;;;1.08;0.60;;;18.60;49.20;;;;;;5073019;28;20036;-73
2021/05/31 09:07:38;;;;;;;0.10;0.10;;;18.80;49.20;;;;;;5074287;28;20388;-73
2021/05/31 09:10:06;;;;;;;0.38;0.38;;;19.20;48.20;;;;;;5055711;28;20052;-73
2021/05/31 09:12:37;;;;;;;2.53;1.20;;;19.70;48.30;;;;;;5075002;28;20020;-73
2021/05/31 09:15:11;;;;;;;0.20;0.20;;;19.50;47.00;;;;;;5072815;28;20048;-72
2021/05/31 09:17:39;;;;;;;0.90;0.50;;;19.60;47.30;;;;;;5072728;28;20536;-72
2021/05/31 09:20:07;;;;;;;0.68;0.68;;;19.90;46.70;;;;;;5073233;28;20475;-73
2021/05/31 09:22:47;;;;;;;0.20;0.20;;;20.00;46.70;;;;;;5069711;28;20012;-73
2021/05/31 09:25:34;;;;;;;0.85;0.43;;;20.10;45.30;;;;;;5055240;28;20488;-73
2021/05/31 09:28:09;;;;;;;0.22;0.22;;;20.10;46.50;;;;;;5076709;28;20027;-73
2021/05/31 09:30:40;;;;;;;0.22;0.22;;;20.20;46.10;;;;;;5050786;28;20020;-73
2021/05/31 09:33:16;;;;;;;3.28;1.92;;;20.20;43.30;;;;;;5053429;28;20025;-73
2021/05/31 09:35:43;;;;;;;0.10;0.10;;;20.00;44.80;;;;;;5072005;28;20503;-71
2021/05/31 09:38:10;;;;;;;0.52;0.52;;;20.40;45.50;;;;;;5075375;28;20036;-73
2021/05/31 09:40:36;;;;;;;0.22;0.22;;;20.70;44.30;;;;;;5055081;28;20020;-73
2021/05/31 09:43:05;;;;;;;0.25;0.25;;;20.40;43.80;;;;;;5071549;28;20074;-73
2021/05/31 09:45:33;;;;;;;0.32;0.32;;;20.60;44.40;;;;;;5053454;28;20048;-73
2021/05/31 09:48:03;;;;;;;0.98;0.70;;;20.60;42.90;;;;;;5050577;28;20064;-72
2021/05/31 09:50:31;;;;;;;1.33;1.27;;;20.50;41.20;;;;;;5068242;28;20020;-72
2021/05/31 09:53:12;;;;;;;0.25;0.17;;;21.10;41.20;;;;;;5071419;28;20033;-74
2021/05/31 09:55:44;;;;;;;0.65;0.40;;;21.30;40.00;;;;;;5052406;28;20021;-74
2021/05/31 09:58:13;;;;;;;4.15;0.95;;;21.50;41.90;;;;;;5054015;28;20107;-74
2021/05/31 10:00:41;;;;;;;1.02;0.93;;;21.30;43.20;;;;;;5054217;28;20020;-74
2021/05/31 10:10:40;;;;;;;0.28;0.20;;;21.80;42.20;;;;;;5072376;28;20028;-74
2021/05/31 10:13:06;;;;;;;0.40;0.30;;;21.90;41.20;;;;;;5053959;28;20055;-74
2021/05/31 10:15:43;;;;;;;1.08;0.98;;;21.90;41.80;;;;;;5071995;28;20028;-74
2021/05/31 10:18:13;;;;;;;3.30;0.40;;;21.60;41.80;;;;;;5074150;28;20385;-73
2021/05/31 10:20:39;;;;;;;0.40;0.40;;;21.60;42.30;;;;;;5071850;28;20055;-73
2021/05/31 10:23:09;;;;;;;0.10;0.10;;;21.90;42.70;;;;;;5075692;28;20461;-74
2021/05/31 10:25:43;;;;;;;1.45;0.65;;;22.10;41.00;;;;;;5054056;28;20025;-73
2021/05/31 10:28:23;;;;;;;0.73;0.73;;;22.30;40.40;;;;;;5071699;28;20020;-74
2021/05/31 10:30:52;;;;;;;0.43;0.43;;;22.30;40.60;;;;;;5071117;28;20031;-73
2021/05/31 10:33:22;;;;;;;1.95;0.43;;;22.30;40.10;;;;;;5055818;28;20167;-73
2021/05/31 10:35:49;;;;;;;0.47;0.30;;;22.30;39.10;;;;;;5071497;28;20033;-73
2021/05/31 10:38:18;;;;;;;0.57;0.57;;;22.40;39.80;;;;;;5036580;28;20020;-73
2021/05/31 10:40:45;;;;;;;2.97;0.52;;;22.40;40.80;;;;;;5071426;28;20036;-73
2021/05/31 10:43:17;;;;;;;1.15;1.08;;;22.60;39.90;;;;;;5055347;28;20020;-73
2021/05/31 10:45:43;;;;;;;0.32;0.32;;;22.40;39.00;;;;;;5071445;28;20071;-73
2021/05/31 10:48:12;;;;;;;0.15;0.15;;;22.00;39.20;;;;;;5062144;28;20472;-73
2021/05/31 10:50:44;;;;;;;1.00;0.65;;;22.10;40.00;;;;;;5071247;28;20033;-73
2021/05/31 10:53:19;;;;;;;0.52;0.52;;;21.80;40.50;;;;;;5071624;28;20028;-73
2021/05/31 10:56:04;;;;;;;0.98;0.93;;;22.00;39.30;;;;;;5071041;28;20395;-73
2021/05/31 10:58:35;;;;;;;0.15;0.15;;;21.80;40.50;;;;;;5073278;28;20128;-73
2021/05/31 11:01:09;;;;;;;0.08;0.08;;;22.00;38.10;;;;;;5071017;28;20051;-74
2021/05/31 11:03:52;;;;;;;0.10;0.10;;;22.30;38.40;;;;;;5067195;28;20507;-73
2021/05/31 11:06:25;;;;;;;0.13;0.13;;;22.70;36.30;;;;;;5052908;28;20024;-73
2021/05/31 11:09:03;;;;;;;0.20;0.20;;;23.00;36.40;;;;;;5071550;28;20017;-73
2021/05/31 11:11:30;;;;;;;0.30;0.10;;;23.30;35.50;;;;;;5053248;28;20047;-73
2021/05/31 11:13:58;;;;;;;0.70;0.52;;;23.30;35.40;;;;;;5069108;28;20040;-73
2021/05/31 11:16:24;;;;;;;1.40;1.30;;;22.80;35.50;;;;;;5070516;28;20403;-75
2021/05/31 11:18:57;;;;;;;0.35;0.35;;;22.60;36.80;;;;;;5071009;28;20423;-74
2021/05/31 11:21:34;;;;;;;4.75;0.75;;;22.50;36.10;;;;;;5053110;28;20487;-75
2021/05/31 11:24:06;;;;;;;0.57;0.57;;;22.10;37.50;;;;;;5050939;28;20053;-73
2021/05/31 11:26:35;;;;;;;0.20;0.20;;;22.50;38.40;;;;;;5070928;28;20032;-74
2021/05/31 11:29:02;;;;;;;0.38;0.38;;;22.70;37.00;;;;;;5074435;28;20019;-74
2021/05/31 11:31:28;;;;;;;1.30;0.93;;;22.70;36.70;;;;;;5070590;28;20662;-74
2021/05/31 11:33:55;;;;;;;0.30;0.30;;;23.20;36.10;;;;;;5070539;28;20051;-74
2021/05/31 11:36:31;;;;;;;0.20;0.20;;;23.00;34.80;;;;;;5070683;28;20361;-74
2021/05/31 11:38:58;;;;;;;0.45;0.45;;;22.90;36.40;;;;;;5052299;28;20435;-74
2021/05/31 11:41:39;;;;;;;0.93;0.38;;;22.50;35.60;;;;;;5070231;28;20111;-74
2021/05/31 11:44:06;;;;;;;0.73;0.73;;;22.60;36.10;;;;;;5050630;28;20025;-74
2021/05/31 11:46:46;;;;;;;1.92;1.17;;;22.60;35.10;;;;;;5070701;28;20028;-74
2021/05/31 11:49:12;;;;;;;0.10;0.10;;;22.30;36.60;;;;;;5071611;28;20048;-73
2021/05/31 11:51:38;;;;;;;0.28;0.28;;;22.20;37.20;;;;;;5052653;28;20060;-74
2021/05/31 11:54:06;;;;;;;0.32;0.32;;;22.20;37.70;;;;;;5068591;28;20020;-74
2021/05/31 11:56:35;;;;;;;0.55;0.55;;;22.30;37.00;;;;;;5052313;28;20134;-74
2021/05/31 11:59:01;;;;;;;0.57;0.57;;;22.00;38.00;;;;;;5052394;28;20397;-74
2021/05/31 12:01:30;;;;;;;0.10;0.10;;;22.00;38.50;;;;;;5070459;28;20020;-74
2021/05/31 12:03:56;;;;;;;0.47;0.38;;;22.10;38.20;;;;;;5072115;28;20119;-74
2021/05/31 12:06:22;;;;;;;2.97;1.38;;;22.30;36.00;;;;;;5069270;28;20078;-74
2021/05/31 12:08:51;;;;;;;0.10;0.10;;;22.00;35.60;;;;;;5060680;28;20058;-74
2021/05/31 12:11:21;;;;;;;0.10;0.10;;;21.50;36.10;;;;;;5065967;28;20396;-73
2021/05/31 12:13:48;;;;;;;1.17;0.98;;;21.60;36.60;;;;;;5053464;28;20380;-74
2021/05/31 12:16:16;;;;;;;1.70;1.02;;;21.50;37.10;;;;;;5052386;28;20028;-74
2021/05/31 12:18:43;;;;;;;0.10;0.10;;;21.40;37.20;;;;;;5035408;28;20028;-74
2021/05/31 12:21:09;;;;;;;0.10;0.10;;;21.70;36.80;;;;;;5050969;28;20024;-74
2021/05/31 12:23:36;;;;;;;0.45;0.38;;;21.80;36.20;;;;;;5069082;28;20078;-74
2021/05/31 12:26:06;;;;;;;17.70;12.40;;;21.80;35.40;;;;;;5052127;28;20032;-74
2021/05/31 12:28:34;;;;;;;1.15;0.90;;;21.60;36.00;;;;;;5052976;28;20396;-74
2021/05/31 12:31:00;;;;;;;0.10;0.10;;;20.90;36.90;;;;;;5054007;28;20361;-74
2021/05/31 12:33:26;;;;;;;0.10;0.10;;;21.00;38.30;;;;;;5073006;28;20514;-73
2021/05/31 12:35:52;;;;;;;0.10;0.10;;;20.50;38.50;;;;;;5062450;28;20024;-74
2021/05/31 12:38:20;;;;;;;0.00;0.00;;;20.90;38.20;;;;;;5073889;28;20093;-74
2021/05/31 12:40:47;;;;;;;2.25;0.95;;;21.00;38.70;;;;;;5074137;28;20136;-74
2021/05/31 12:43:13;;;;;;;0.10;0.10;;;21.10;37.70;;;;;;5073803;28;20024;-74
2021/05/31 12:45:47;;;;;;;0.10;0.10;;;21.30;37.20;;;;;;5073125;28;20024;-74
2021/05/31 12:48:23;;;;;;;0.10;0.10;;;21.30;38.20;;;;;;5069520;28;20100;-73
2021/05/31 12:50:51;;;;;;;1.38;0.25;;;21.00;36.00;;;;;;5055423;28;20557;-74
2021/05/31 12:53:17;;;;;;;0.57;0.22;;;20.80;36.80;;;;;;5071827;28;20025;-73
2021/05/31 12:55:44;;;;;;;0.20;0.20;;;20.70;36.70;;;;;;5074605;28;20058;-74
2021/05/31 12:58:23;;;;;;;0.10;0.10;;;20.80;36.60;;;;;;5073561;28;20448;-74
2021/05/31 13:00:50;;;;;;;0.20;0.20;;;21.00;36.70;;;;;;5076396;28;20025;-74
2021/05/31 13:03:17;;;;;;;0.57;0.52;;;21.20;35.90;;;;;;5055265;28;20025;-74
2021/05/31 13:05:48;;;;;;;1.35;0.68;;;21.00;37.50;;;;;;5072912;28;20028;-74
2021/05/31 13:08:15;;;;;;;0.00;0.00;;;21.00;37.90;;;;;;5073351;28;20476;-74
2021/05/31 13:10:44;;;;;;;0.47;0.47;;;20.90;38.00;;;;;;5072910;28;20504;-72
2021/05/31 13:13:12;;;;;;;0.20;0.20;;;21.00;37.80;;;;;;5073293;28;20016;-72
2021/05/31 13:15:42;;;;;;;0.32;0.32;;;20.90;37.40;;;;;;5076968;28;20029;-72
2021/05/31 13:18:31;;;;;;;0.30;0.30;;;20.80;37.40;;;;;;5073272;28;20071;-72